Time;durP1;ratioP1;P1;durP2;ratioP2;P2;SDS_P1;SDS_P2;PMS_P1;PMS_P2;Temp;Humidity;BMP_temperature;BMP_pressure;BME280_temperature;BME280_humidity;BME280_pressure;Samples;Min_cycle;Max_cycle;Signal;HPM_P1;HPM_P2
2022/03/24 00:02:19;;;;;;;0.93;0.93;;;;;;;4.14;85.85;101457.69;5033002;28;20505;-76
2022/03/24 00:04:46;;;;;;;0.30;0.20;;;;;;;4.12;85.35;101460.31;5032031;28;20452;-76
2022/03/24 00:07:13;;;;;;;0.30;0.20;;;;;;;4.14;86.60;101468.22;5032634;28;21066;-76
2022/03/24 00:09:39;;;;;;;0.30;0.20;;;;;;;3.98;87.00;101461.81;5031062;28;20487;-76
2022/03/24 00:12:07;;;;;;;0.73;0.63;;;;;;;3.95;86.91;101461.72;5032850;28;20878;-77
2022/03/24 00:14:34;;;;;;;2.20;1.33;;;;;;;4.12;86.36;101454.16;5044101;28;20450;-76
2022/03/24 00:17:00;;;;;;;1.80;1.80;;;;;;;4.01;87.10;101453.97;5025637;28;20546;-77
2022/03/24 00:19:27;;;;;;;0.30;0.20;;;;;;;4.14;86.74;101458.56;5024145;28;20491;-76
2022/03/24 00:21:54;;;;;;;0.30;0.20;;;;;;;3.94;85.96;101452.06;5032426;28;20471;-76
2022/03/24 00:24:20;;;;;;;0.50;0.50;;;;;;;3.83;86.99;101451.88;5031782;28;20455;-76
2022/03/24 00:26:47;;;;;;;0.40;0.40;;;;;;;3.83;87.48;101451.00;5032239;28;20485;-77
2022/03/24 00:29:14;;;;;;;0.30;0.20;;;;;;;3.84;88.14;101450.16;5032497;28;20471;-77
2022/03/24 00:31:41;;;;;;;0.97;0.97;;;;;;;3.79;87.20;101457.97;5036023;28;20798;-77
2022/03/24 00:34:07;;;;;;;2.80;2.70;;;;;;;3.90;86.88;101452.88;5035763;28;20452;-76
2022/03/24 00:36:34;;;;;;;1.30;1.30;;;;;;;3.98;86.17;101459.19;5035035;28;21038;-77
2022/03/24 00:39:01;;;;;;;0.30;0.20;;;;;;;3.81;86.89;101460.59;5036385;28;20545;-77
2022/03/24 00:41:28;;;;;;;0.30;0.20;;;;;;;3.61;87.28;101462.88;5036027;28;20964;-77
2022/03/24 00:43:56;;;;;;;1.37;1.37;;;;;;;3.80;88.54;101454.47;5036568;28;20459;-77
2022/03/24 00:46:23;;;;;;;0.30;0.20;;;;;;;3.73;88.17;101442.09;5018267;28;20467;-77
2022/03/24 00:48:51;;;;;;;0.30;0.20;;;;;;;3.86;88.53;101448.44;5023205;28;20486;-77
2022/03/24 00:51:18;;;;;;;0.27;0.10;;;;;;;3.78;88.37;101448.28;5022013;28;20485;-77
2022/03/24 00:53:46;;;;;;;0.30;0.20;;;;;;;3.56;86.96;101418.13;5036021;28;20497;-77
2022/03/24 00:56:12;;;;;;;0.30;0.10;;;;;;;3.59;88.01;101447.97;5035575;28;20455;-77
2022/03/24 00:58:39;;;;;;;0.30;0.20;;;;;;;3.53;88.95;101443.44;5036120;28;20538;-77
2022/03/24 01:01:09;;;;;;;0.30;0.20;;;;;;;3.53;88.74;101446.06;5036056;28;20883;-76
2022/03/24 01:03:36;;;;;;;0.30;0.20;;;;;;;3.71;89.36;101443.81;5036050;28;20448;-76
2022/03/24 01:06:03;;;;;;;0.87;0.87;;;;;;;3.41;88.77;101443.22;5034547;28;20966;-76
2022/03/24 01:08:31;;;;;;;0.30;0.20;;;;;;;3.70;87.73;101442.03;5034188;28;20471;-76
2022/03/24 01:10:58;;;;;;;1.23;1.03;;;;;;;3.37;88.44;101441.41;5034745;28;20936;-76
2022/03/24 01:13:25;;;;;;;0.30;0.23;;;;;;;3.26;88.84;101443.81;5039256;28;20454;-76
2022/03/24 01:15:52;;;;;;;0.30;0.10;;;;;;;3.36;89.48;101442.25;5045788;28;20455;-76
2022/03/24 01:18:19;;;;;;;1.67;0.53;;;;;;;3.37;88.64;101444.03;5034427;28;20480;-76
2022/03/24 01:20:46;;;;;;;0.30;0.20;;;;;;;3.33;88.73;101434.31;5035116;28;21029;-76
2022/03/24 01:23:13;;;;;;;0.30;0.20;;;;;;;3.44;87.96;101440.66;5026119;22;20558;-79
2022/03/24 01:25:42;;;;;;;0.30;0.20;;;;;;;3.22;88.86;101431.47;5006082;28;20862;-78
2022/03/24 01:28:13;;;;;;;0.30;0.17;;;;;;;3.17;89.36;101433.13;5027999;28;20523;-78
2022/03/24 01:30:39;;;;;;;0.20;0.10;;;;;;;3.47;88.82;101431.09;5029195;28;20493;-78
2022/03/24 01:33:08;;;;;;;0.20;0.20;;;;;;;3.32;88.76;101429.91;5018537;28;20503;-78
2022/03/24 01:35:35;;;;;;;0.30;0.20;;;;;;;3.03;88.81;101406.59;5028230;28;20451;-78
2022/03/24 01:38:02;;;;;;;1.77;1.00;;;;;;;3.11;89.86;101433.00;5031170;28;20473;-78
2022/03/24 01:40:28;;;;;;;1.03;0.83;;;;;;;3.07;90.29;101436.44;5028850;28;20483;-77
2022/03/24 01:42:55;;;;;;;0.30;0.20;;;;;;;3.07;89.62;101432.06;5017389;28;20483;-77
2022/03/24 01:45:21;;;;;;;0.20;0.20;;;;;;;3.04;90.10;101432.00;5029030;28;20448;-78
2022/03/24 01:47:48;;;;;;;0.30;0.30;;;;;;;2.91;90.50;101407.22;5027398;28;20479;-77
2022/03/24 01:50:15;;;;;;;0.60;0.60;;;;;;;3.04;90.56;101432.00;5023260;28;20444;-78
2022/03/24 01:52:43;;;;;;;0.40;0.40;;;;;;;3.10;90.43;101432.13;5029793;28;20478;-77
2022/03/24 01:55:13;;;;;;;0.57;0.50;;;;;;;3.02;89.86;101435.47;5029358;28;21014;-77
2022/03/24 01:57:41;;;;;;;0.30;0.20;;;;;;;2.97;90.65;101424.84;5015291;28;20472;-77
2022/03/24 02:00:10;;;;;;;0.30;0.20;;;;;;;3.15;89.93;101435.75;5030789;28;20490;-77
2022/03/24 02:02:37;;;;;;;0.37;0.37;;;;;;;2.93;90.28;101431.78;5027610;28;20453;-77
2022/03/24 02:05:04;;;;;;;0.30;0.20;;;;;;;2.78;90.93;101426.22;5018412;28;20824;-78
2022/03/24 02:07:32;;;;;;;0.30;0.20;;;;;;;2.81;91.37;101421.00;5036290;28;20464;-77
2022/03/24 02:09:59;;;;;;;0.30;0.20;;;;;;;2.82;91.09;101432.41;5033265;28;20446;-78
2022/03/24 02:12:26;;;;;;;0.30;0.10;;;;;;;2.92;91.24;101426.50;5017010;28;20499;-77
2022/03/24 02:14:57;;;;;;;0.30;0.20;;;;;;;2.78;91.01;101422.69;5031050;28;20482;-78
2022/03/24 02:17:28;;;;;;;0.43;0.43;;;;;;;2.89;91.59;101423.81;5030624;28;20511;-77
2022/03/24 02:19:57;;;;;;;0.47;0.47;;;;;;;2.77;90.72;101423.56;5020799;28;20475;-77
2022/03/24 02:22:28;;;;;;;0.30;0.20;;;;;;;2.71;92.05;101412.91;5024977;28;20456;-77
2022/03/24 02:24:55;;;;;;;1.37;1.33;;;;;;;2.72;91.13;101417.28;5029199;28;20453;-77
2022/03/24 02:27:24;;;;;;;0.30;0.20;;;;;;;2.68;92.03;101419.88;5027149;28;20857;-77
2022/03/24 02:29:51;;;;;;;0.20;0.10;;;;;;;2.74;91.62;101423.47;5021200;28;20455;-77
2022/03/24 02:32:20;;;;;;;0.27;0.20;;;;;;;2.63;91.21;101416.25;5022584;28;20444;-77
2022/03/24 02:34:48;;;;;;;0.20;0.10;;;;;;;2.82;91.22;101422.78;5032166;28;20469;-78
2022/03/24 02:37:20;;;;;;;0.20;0.10;;;;;;;2.75;91.73;101413.03;5028345;28;21039;-78
2022/03/24 02:39:49;;;;;;;0.30;0.20;;;;;;;2.70;91.25;101417.28;5011659;28;20842;-78
2022/03/24 02:42:21;;;;;;;0.20;0.10;;;;;;;2.65;91.48;101413.66;5038883;28;20455;-78
2022/03/24 02:44:51;;;;;;;0.23;0.20;;;;;;;2.54;91.66;101421.31;5027677;28;20871;-78
2022/03/24 02:47:18;;;;;;;0.20;0.20;;;;;;;2.64;92.86;101411.91;5018875;28;20476;-78
2022/03/24 02:49:47;;;;;;;0.20;0.10;;;;;;;2.62;92.04;101426.72;5026436;28;20491;-78
2022/03/24 02:52:14;;;;;;;0.20;0.10;;;;;;;2.55;92.46;101417.81;5028248;28;20502;-78
2022/03/24 02:54:42;;;;;;;0.20;0.10;;;;;;;2.51;93.07;101415.09;5026270;28;20502;-78
2022/03/24 02:57:09;;;;;;;0.20;0.10;;;;;;;2.53;92.56;101414.28;5017457;28;20484;-78
2022/03/24 02:59:36;;;;;;;1.70;1.70;;;;;;;2.55;91.84;101415.19;5016570;28;20487;-78
2022/03/24 03:02:06;;;;;;;0.20;0.20;;;;;;;2.53;91.83;101424.78;5022962;28;20471;-78
2022/03/24 03:04:37;;;;;;;0.30;0.20;;;;;;;2.51;92.22;101423.88;5027178;28;20471;-78
2022/03/24 03:07:04;;;;;;;4.00;2.43;;;;;;;2.37;93.13;101426.16;5031510;28;20472;-78
2022/03/24 03:09:32;;;;;;;4.23;0.77;;;;;;;2.41;93.49;101428.88;5014517;28;20819;-78
2022/03/24 03:11:59;;;;;;;0.30;0.20;;;;;;;2.46;92.69;101422.84;5034820;28;20451;-78
2022/03/24 03:14:29;;;;;;;0.20;0.10;;;;;;;2.58;94.03;101423.13;5023850;28;20495;-78
2022/03/24 03:16:58;;;;;;;0.20;0.10;;;;;;;2.48;92.83;101425.53;5032917;28;20494;-78
2022/03/24 03:19:25;;;;;;;0.20;0.20;;;;;;;2.44;93.09;101424.56;5022890;28;20492;-78
2022/03/24 03:21:52;;;;;;;0.20;0.17;;;;;;;2.41;93.83;101429.75;5029285;28;20495;-79
2022/03/24 03:24:23;;;;;;;0.27;0.20;;;;;;;2.41;93.92;101424.50;5015778;28;20488;-78
2022/03/24 03:26:52;;;;;;;0.20;0.10;;;;;;;2.53;92.93;101435.28;5009840;28;20463;-78
2022/03/24 03:29:22;;;;;;;0.30;0.20;;;;;;;2.40;93.10;101424.47;5035031;28;20444;-78
2022/03/24 03:31:51;;;;;;;0.20;0.10;;;;;;;2.53;93.00;101435.28;5015972;28;20448;-78
2022/03/24 03:34:18;;;;;;;0.40;0.20;;;;;;;2.37;92.45;101430.53;5033053;28;20832;-78
2022/03/24 03:36:45;;;;;;;0.30;0.20;;;;;;;2.38;92.50;101430.56;5034138;28;20472;-78
2022/03/24 03:39:12;;;;;;;0.87;0.87;;;;;;;2.36;93.76;101426.16;5022157;28;20488;-78
2022/03/24 03:41:39;;;;;;;0.80;0.70;;;;;;;2.38;93.60;101438.44;5025819;28;20448;-78
2022/03/24 03:44:06;;;;;;;7.00;2.73;;;;;;;2.35;92.49;101434.88;5033592;28;20463;-78
2022/03/24 03:46:34;;;;;;;0.20;0.20;;;;;;;2.25;93.60;101440.75;5025734;28;20530;-78
2022/03/24 03:49:01;;;;;;;1.60;1.33;;;;;;;2.14;94.51;101440.47;5027720;28;20502;-78
2022/03/24 03:51:27;;;;;;;0.20;0.10;;;;;;;2.34;93.89;101441.84;5025023;28;20447;-78
2022/03/24 03:53:55;;;;;;;3.60;1.40;;;;;;;2.36;93.08;101436.63;5035972;28;20448;-78
2022/03/24 03:56:21;;;;;;;0.20;0.20;;;;;;;2.29;93.51;101438.22;5024311;28;21015;-77
2022/03/24 03:58:48;;;;;;;0.20;0.20;;;;;;;2.36;93.58;101434.91;5030168;28;20503;-77
2022/03/24 04:01:15;;;;;;;0.20;0.20;;;;;;;2.36;92.98;101437.53;5025317;28;20533;-78
2022/03/24 04:03:42;;;;;;;0.30;0.20;;;;;;;2.20;92.98;101438.03;5021107;28;20530;-78
2022/03/24 04:06:11;;;;;;;0.20;0.10;;;;;;;2.10;94.20;101435.13;5034226;28;20451;-78
2022/03/24 04:08:40;;;;;;;2.00;1.90;;;;;;;2.03;94.48;101442.81;5019760;28;20443;-77
2022/03/24 04:11:09;;;;;;;0.30;0.20;;;;;;;1.92;95.25;101432.91;5020934;28;20449;-78
2022/03/24 04:13:41;;;;;;;0.20;0.20;;;;;;;2.02;94.53;101435.81;5027126;28;20571;-77
2022/03/24 04:16:11;;;;;;;0.20;0.10;;;;;;;2.03;94.10;101428.84;5025349;28;20494;-77
2022/03/24 04:18:44;;;;;;;0.20;0.10;;;;;;;1.96;94.13;101445.28;5020038;28;20446;-78
2022/03/24 04:21:11;;;;;;;0.20;0.10;;;;;;;2.04;94.53;101443.72;5020171;28;21055;-77
2022/03/24 04:23:40;;;;;;;0.20;0.10;;;;;;;1.97;94.33;101437.44;5026416;28;20440;-77
2022/03/24 04:26:07;;;;;;;0.53;0.53;;;;;;;1.88;95.01;101431.97;5031480;28;20451;-78
2022/03/24 04:28:34;;;;;;;0.30;0.20;;;;;;;2.03;94.83;101440.22;5022143;28;20447;-77
2022/03/24 04:31:02;;;;;;;0.93;0.93;;;;;;;2.00;94.73;101439.25;5019232;28;20564;-77
2022/03/24 04:33:29;;;;;;;1.13;1.13;;;;;;;1.98;94.09;101438.34;5024478;28;20819;-77
2022/03/24 04:35:58;;;;;;;0.20;0.10;;;;;;;1.83;94.79;101443.19;5026986;28;20952;-77
2022/03/24 04:38:26;;;;;;;0.20;0.13;;;;;;;2.03;93.08;101448.06;5021220;28;20501;-77
2022/03/24 04:40:56;;;;;;;0.30;0.20;;;;;;;1.95;94.25;101436.53;5030829;28;20496;-77
2022/03/24 04:43:24;;;;;;;2.43;1.70;;;;;;;1.90;93.58;101446.00;5032261;28;20440;-77
2022/03/24 04:45:51;;;;;;;0.20;0.10;;;;;;;1.86;94.36;101445.88;5029214;28;20457;-77
2022/03/24 04:48:18;;;;;;;0.30;0.10;;;;;;;2.03;93.79;101441.94;5022613;28;20453;-77
2022/03/24 04:50:45;;;;;;;0.20;0.10;;;;;;;1.75;94.42;101440.38;5027256;28;20445;-77
2022/03/24 04:53:15;;;;;;;0.20;0.20;;;;;;;1.85;94.96;101458.09;5013837;28;20460;-78
2022/03/24 04:55:43;;;;;;;0.30;0.10;;;;;;;1.77;95.32;101454.38;5027561;28;20467;-77
2022/03/24 04:58:11;;;;;;;0.53;0.53;;;;;;;1.82;95.18;101458.03;5032413;28;20900;-77
2022/03/24 05:00:39;;;;;;;0.37;0.33;;;;;;;1.91;93.87;101459.97;5019439;28;20499;-78
2022/03/24 05:03:06;;;;;;;0.20;0.10;;;;;;;1.77;93.78;101443.91;5022990;28;20945;-78
2022/03/24 05:05:32;;;;;;;0.73;0.73;;;;;;;1.82;94.23;101447.56;5027624;28;20449;-78
2022/03/24 05:07:59;;;;;;;0.20;0.20;;;;;;;1.75;94.49;101462.22;5024692;28;20468;-77
2022/03/24 05:10:38;;;;;;;0.20;0.10;;;;;;;1.88;94.21;101457.28;5019913;28;21034;-77
2022/03/24 05:13:05;;;;;;;0.20;0.20;;;;;;;1.75;93.82;101451.72;5019444;28;20467;-77
2022/03/24 05:15:32;;;;;;;0.20;0.10;;;;;;;1.81;94.58;101456.28;5035099;28;20929;-77
2022/03/24 05:17:59;;;;;;;0.67;0.63;;;;;;;1.80;94.12;101464.09;5020886;28;20523;-77
2022/03/24 05:20:30;;;;;;;0.83;0.73;;;;;;;1.65;93.85;101457.59;5016936;28;20519;-77
2022/03/24 05:22:57;;;;;;;0.20;0.10;;;;;;;1.85;94.82;101454.59;5029874;28;20836;-77
2022/03/24 05:25:26;;;;;;;0.70;0.40;;;;;;;1.78;94.67;101457.09;5036094;28;20498;-78
2022/03/24 05:27:57;;;;;;;0.20;0.10;;;;;;;1.84;94.67;101463.31;5035165;28;20478;-77
2022/03/24 05:30:24;;;;;;;1.33;1.33;;;;;;;1.73;94.93;101458.69;5007109;28;20441;-78
2022/03/24 05:32:51;;;;;;;0.20;0.10;;;;;;;1.80;94.99;101469.34;5026123;28;20453;-78
2022/03/24 05:35:17;;;;;;;0.20;0.10;;;;;;;1.82;95.58;101468.53;5019362;28;20460;-78
2022/03/24 05:37:44;;;;;;;0.87;0.87;;;;;;;1.80;96.41;101469.34;5032987;28;20476;-81
2022/03/24 05:40:12;;;;;;;0.20;0.10;;;;;;;1.65;96.06;101467.19;5034751;28;20488;-78
2022/03/24 05:42:38;;;;;;;0.20;0.10;;;;;;;1.73;95.68;101463.03;5018621;28;20806;-78
2022/03/24 05:45:06;;;;;;;0.20;0.10;;;;;;;1.74;97.10;101464.81;5029850;28;20455;-79
2022/03/24 05:47:33;;;;;;;0.20;0.20;;;;;;;1.74;96.84;101470.94;5034284;28;20770;-78
2022/03/24 05:50:00;;;;;;;0.20;0.10;;;;;;;1.73;98.16;101435.09;5028254;28;20449;-80
2022/03/24 05:52:26;;;;;;;0.40;0.40;;;;;;;2.00;97.87;101465.47;5018730;28;20515;-78
2022/03/24 05:54:53;;;;;;;1.83;1.73;;;;;;;2.07;96.93;101470.91;5018871;28;20499;-78
2022/03/24 05:57:19;;;;;;;0.20;0.10;;;;;;;2.05;96.75;101472.59;5031801;28;20476;-78
2022/03/24 05:59:46;;;;;;;0.40;0.40;;;;;;;2.18;96.45;101463.28;5030591;28;20831;-79
2022/03/24 06:02:13;;;;;;;0.20;0.10;;;;;;;2.34;95.65;101477.69;5020477;28;20452;-79
2022/03/24 06:04:44;;;;;;;0.20;0.10;;;;;;;2.45;96.20;101472.66;5034067;28;20529;-79
2022/03/24 06:07:11;;;;;;;0.30;0.20;;;;;;;2.48;95.43;101471.03;5022416;28;20472;-79
2022/03/24 06:09:38;;;;;;;0.20;0.20;;;;;;;2.67;96.09;101480.19;5038567;28;20499;-79
2022/03/24 06:12:08;;;;;;;0.30;0.27;;;;;;;2.80;95.65;101478.75;5039300;28;20448;-80
2022/03/24 06:14:36;;;;;;;0.20;0.10;;;;;;;2.71;95.37;101481.16;5023569;28;20798;-81
2022/03/24 06:17:04;;;;;;;0.20;0.17;;;;;;;2.95;94.83;101474.69;5041802;28;20893;-80
2022/03/24 06:19:31;;;;;;;0.27;0.17;;;;;;;2.98;94.59;101476.50;5030004;28;20448;-79
2022/03/24 06:21:58;;;;;;;0.50;0.50;;;;;;;3.08;94.39;101478.47;5016464;28;20460;-80
2022/03/24 06:24:25;;;;;;;0.40;0.37;;;;;;;3.09;94.76;101484.63;5029319;28;20453;-80
2022/03/24 06:26:52;;;;;;;0.53;0.53;;;;;;;3.18;94.48;101485.69;5035221;28;20461;-80
2022/03/24 06:29:19;;;;;;;1.13;1.13;;;;;;;3.20;93.89;101476.09;5036700;28;20501;-80
2022/03/24 06:31:46;;;;;;;0.83;0.83;;;;;;;3.31;93.33;101478.06;5042798;28;20527;-79
2022/03/24 06:34:13;;;;;;;0.30;0.20;;;;;;;3.32;92.57;101485.09;5043320;28;20925;-80
2022/03/24 06:36:40;;;;;;;0.20;0.10;;;;;;;3.39;92.99;101460.69;5021819;28;20473;-79
2022/03/24 06:39:07;;;;;;;2.43;0.93;;;;;;;3.65;92.25;101477.84;5032535;28;20456;-80
2022/03/24 06:41:35;;;;;;;0.20;0.20;;;;;;;3.58;91.96;101480.34;5037903;28;20491;-79
2022/03/24 06:44:05;;;;;;;0.20;0.10;;;;;;;3.76;91.72;101488.56;5038472;28;20448;-80
2022/03/24 06:46:33;;;;;;;0.30;0.30;;;;;;;3.80;91.74;101480.75;5049614;28;20500;-79
2022/03/24 06:49:03;;;;;;;0.30;0.10;;;;;;;3.95;91.32;101474.88;5032381;28;20455;-79
2022/03/24 06:51:30;;;;;;;0.20;0.10;;;;;;;4.03;91.00;101482.94;5026740;28;20846;-79
2022/03/24 06:53:56;;;;;;;0.30;0.13;;;;;;;4.10;89.89;101483.03;5040324;28;20449;-79
2022/03/24 06:56:23;;;;;;;0.97;0.97;;;;;;;4.16;89.95;101479.66;5028939;28;20509;-79
2022/03/24 06:58:51;;;;;;;0.27;0.20;;;;;;;4.33;88.84;101479.91;5037098;28;21007;-80
2022/03/24 07:01:18;;;;;;;3.20;1.90;;;;;;;4.50;89.14;101472.28;5037755;28;20521;-79
2022/03/24 07:03:45;;;;;;;0.20;0.20;;;;;;;4.82;87.44;101472.75;5024990;28;20448;-79
2022/03/24 07:06:12;;;;;;;0.57;0.57;;;;;;;4.83;87.54;101485.94;5028474;28;20468;-79
2022/03/24 07:08:39;;;;;;;0.40;0.40;;;;;;;4.96;86.53;101476.47;5034173;28;20817;-79
2022/03/24 07:11:06;;;;;;;0.63;0.63;;;;;;;5.06;86.22;101486.25;5029551;28;20447;-79
2022/03/24 07:13:32;;;;;;;0.93;0.93;;;;;;;5.25;86.03;101475.09;5020876;28;20815;-80
2022/03/24 07:15:59;;;;;;;2.20;1.03;;;;;;;5.28;85.45;101475.13;5016954;28;20536;-79
2022/03/24 07:18:26;;;;;;;0.30;0.20;;;;;;;5.41;85.91;101473.50;5023798;28;20475;-79
2022/03/24 07:20:53;;;;;;;0.70;0.70;;;;;;;5.72;85.09;101479.09;5041457;28;20484;-79
2022/03/24 07:23:20;;;;;;;0.83;0.57;;;;;;;5.62;84.35;101471.13;5034485;28;20467;-79
2022/03/24 07:25:46;;;;;;;0.63;0.63;;;;;;;5.89;83.49;101466.97;5023512;28;20962;-79
2022/03/24 07:28:14;;;;;;;0.30;0.20;;;;;;;6.00;83.33;101477.66;5017589;28;20520;-79
2022/03/24 07:30:42;;;;;;;1.67;1.57;;;;;;;6.04;83.64;101469.81;5027777;28;20447;-79
2022/03/24 07:33:10;;;;;;;0.43;0.40;;;;;;;6.47;82.73;101473.66;5020275;28;20903;-79
2022/03/24 07:35:37;;;;;;;1.33;1.33;;;;;;;6.69;80.64;101472.03;5037610;28;20444;-79
2022/03/24 07:38:04;;;;;;;0.30;0.20;;;;;;;6.68;81.53;101478.19;5046722;28;20473;-80
2022/03/24 07:40:31;;;;;;;1.17;1.07;;;;;;;6.87;80.76;101455.44;5030326;28;20483;-80
2022/03/24 07:42:58;;;;;;;0.30;0.20;;;;;;;6.91;80.32;101472.19;5019019;28;20448;-80
2022/03/24 07:45:26;;;;;;;2.20;0.73;;;;;;;6.94;80.68;101464.25;5033648;28;20893;-80
2022/03/24 07:48:13;;;;;;;0.30;0.30;;;;;;;7.12;80.73;101474.91;5018938;28;20484;-80
2022/03/24 07:50:42;;;;;;;0.20;0.10;;;;;;;7.54;78.40;101481.25;5035118;28;20450;-80
2022/03/24 07:53:32;;;;;;;0.30;0.30;;;;;;;7.53;77.91;101472.41;5036353;28;20456;-80
2022/03/24 07:56:00;;;;;;;0.30;0.20;;;;;;;7.46;78.63;101472.41;5022296;28;20456;-79
2022/03/24 07:58:27;;;;;;;1.43;0.53;;;;;;;7.47;78.25;101471.53;5027713;28;20945;-79
2022/03/24 08:00:56;;;;;;;0.60;0.60;;;;;;;7.56;77.64;101466.28;5033761;28;20905;-79
2022/03/24 08:03:23;;;;;;;0.30;0.20;;;;;;;7.75;77.34;101469.84;5034043;28;20467;-80
2022/03/24 08:05:50;;;;;;;0.30;0.20;;;;;;;7.79;76.56;101474.25;5021539;28;20494;-79
2022/03/24 08:08:17;;;;;;;0.77;0.77;;;;;;;7.84;76.05;101481.34;5021041;28;20491;-79
2022/03/24 08:10:47;;;;;;;0.83;0.83;;;;;;;8.01;76.07;101463.72;5022447;28;20526;-79
2022/03/24 08:13:16;;;;;;;2.40;0.60;;;;;;;8.52;73.82;101477.88;5021264;28;20453;-79
2022/03/24 08:15:44;;;;;;;2.03;0.67;;;;;;;8.51;71.55;101481.41;5023087;28;20518;-80
2022/03/24 08:18:11;;;;;;;3.90;2.60;;;;;;;8.30;72.08;101479.59;5031227;28;20468;-80
2022/03/24 08:20:39;;;;;;;0.40;0.40;;;;;;;8.21;73.02;101476.94;5034517;28;20484;-79
2022/03/24 08:23:08;;;;;;;0.73;0.73;;;;;;;8.30;72.39;101484.03;5013937;28;20492;-79
2022/03/24 08:25:36;;;;;;;8.47;2.13;;;;;;;8.57;69.81;101483.16;5004559;28;20440;-80
2022/03/24 08:28:03;;;;;;;0.30;0.20;;;;;;;8.60;70.76;101483.16;5027940;28;20481;-79
2022/03/24 08:30:30;;;;;;;0.30;0.20;;;;;;;8.85;69.94;101474.25;5024705;28;20937;-80
2022/03/24 08:32:57;;;;;;;0.30;0.20;;;;;;;9.14;69.89;101463.56;5021916;28;20521;-80
2022/03/24 08:35:24;;;;;;;0.90;0.40;;;;;;;9.33;69.63;101484.72;5023751;28;20449;-80
2022/03/24 08:37:51;;;;;;;0.40;0.20;;;;;;;9.61;68.53;101482.81;5028231;28;20536;-79
2022/03/24 08:40:18;;;;;;;0.30;0.20;;;;;;;9.60;67.91;101467.78;5015583;28;20448;-80
2022/03/24 08:42:45;;;;;;;6.43;1.13;;;;;;;9.89;67.36;101483.53;5030005;28;21000;-80
2022/03/24 08:45:15;;;;;;;2.43;2.33;;;;;;;10.05;66.01;101485.19;5025950;28;20999;-80
2022/03/24 08:47:42;;;;;;;1.23;1.13;;;;;;;10.00;65.87;101476.34;5024991;28;20467;-80
2022/03/24 08:50:11;;;;;;;0.30;0.20;;;;;;;9.92;65.15;101454.31;5035451;28;20455;-80
2022/03/24 08:52:38;;;;;;;0.40;0.40;;;;;;;10.24;63.59;101472.69;5007241;28;20444;-79
2022/03/24 08:55:06;;;;;;;2.50;2.30;;;;;;;10.30;63.21;101473.53;5032860;28;20455;-79
2022/03/24 08:57:34;;;;;;;0.50;0.50;;;;;;;10.56;62.67;101472.41;5025344;28;20476;-80
2022/03/24 09:00:12;;;;;;;2.00;1.90;;;;;;;10.72;63.31;101473.16;5026474;28;20448;-80
2022/03/24 09:02:41;;;;;;;1.33;1.23;;;;;;;10.89;61.37;101471.19;5012996;28;20491;-80
2022/03/24 09:05:09;;;;;;;1.80;1.53;;;;;;;11.29;61.37;101476.91;5024868;28;20461;-80
2022/03/24 09:07:36;;;;;;;1.70;1.70;;;;;;;11.48;59.15;101477.56;5029632;28;20531;-80
2022/03/24 09:10:06;;;;;;;0.63;0.63;;;;;;;11.41;59.70;101466.13;5019456;28;20456;-80
2022/03/24 09:12:35;;;;;;;4.27;1.73;;;;;;;11.64;58.86;101475.56;5029121;28;20879;-80
2022/03/24 09:15:05;;;;;;;4.40;4.10;;;;;;;11.49;59.50;101474.00;5031924;28;20867;-80
2022/03/24 09:17:32;;;;;;;6.40;1.07;;;;;;;11.47;58.63;101476.69;5030445;28;21031;-80
2022/03/24 09:20:00;;;;;;;10.97;1.50;;;;;;;11.96;59.04;101486.69;5036356;28;20548;-79
2022/03/24 09:22:27;;;;;;;1.70;1.60;;;;;;;12.22;58.29;101474.75;5033954;28;20892;-79
2022/03/24 09:24:53;;;;;;;0.30;0.20;;;;;;;12.35;58.00;101469.19;5036228;28;20444;-79
2022/03/24 09:27:20;;;;;;;2.40;2.30;;;;;;;12.23;56.97;101472.06;5029968;28;20845;-79
2022/03/24 09:29:49;;;;;;;6.33;2.77;;;;;;;12.08;58.72;101467.84;5037692;28;20529;-79
2022/03/24 09:32:19;;;;;;;1.70;1.40;;;;;;;12.49;59.47;101468.06;5025726;28;20453;-79
2022/03/24 09:34:45;;;;;;;1.90;1.90;;;;;;;12.71;58.50;101469.41;5036787;28;20452;-79
2022/03/24 09:37:17;;;;;;;1.20;1.20;;;;;;;12.62;58.32;101475.81;5041657;28;20471;-80
2022/03/24 09:39:45;;;;;;;9.83;1.70;;;;;;;13.14;58.48;101469.47;5030739;28;20459;-79
2022/03/24 09:42:12;;;;;;;1.03;1.03;;;;;;;13.38;57.70;101461.91;5055305;28;20515;-79
2022/03/24 09:44:41;;;;;;;9.23;1.03;;;;;;;13.29;56.93;101469.22;5044605;28;20444;-79
2022/03/24 09:47:12;;;;;;;17.50;3.77;;;;;;;13.30;57.98;101462.09;5041754;28;20515;-79
2022/03/24 09:49:43;;;;;;;0.40;0.40;;;;;;;13.54;56.02;101458.00;5040426;28;20839;-79
2022/03/24 09:52:12;;;;;;;10.43;2.60;;;;;;;13.76;57.48;101466.41;5048440;28;20450;-79
2022/03/24 09:54:42;;;;;;;1.90;1.80;;;;;;;13.98;56.49;101456.09;5039345;28;20451;-79
2022/03/24 09:57:09;;;;;;;10.93;3.73;;;;;;;14.10;55.50;101458.47;5041970;28;20506;-79
2022/03/24 09:59:36;;;;;;;0.67;0.67;;;;;;;14.13;56.41;101448.59;5028567;28;20448;-79
2022/03/24 10:02:05;;;;;;;0.40;0.40;;;;;;;14.46;56.53;101452.25;5025666;28;20479;-79
2022/03/24 10:05:01;;;;;;;6.53;2.17;;;;;;;14.80;56.06;101448.66;5034027;28;20476;-79
2022/03/24 10:07:48;;;;;;;13.13;2.93;;;;;;;14.66;54.97;101450.81;5014069;28;20476;-79
2022/03/24 10:10:25;;;;;;;1.90;1.43;;;;;;;14.71;54.86;101452.47;5021958;28;21005;-79
2022/03/24 10:12:52;;;;;;;3.93;1.57;;;;;;;14.81;53.25;101450.44;5032054;28;20815;-79
2022/03/24 10:15:19;;;;;;;1.93;1.63;;;;;;;14.87;54.02;101447.56;5024541;28;20826;-79
2022/03/24 10:17:54;;;;;;;2.53;2.40;;;;;;;15.32;50.04;101448.06;5022492;28;20998;-79
2022/03/24 10:20:23;;;;;;;1.90;1.83;;;;;;;15.28;50.33;101441.03;5025536;28;20798;-79
2022/03/24 10:22:53;;;;;;;0.70;0.70;;;;;;;15.66;49.42;101439.03;5031764;28;20495;-79
2022/03/24 10:25:26;;;;;;;4.97;4.67;;;;;;;15.73;48.31;101440.59;5025616;28;20444;-80
2022/03/24 10:28:11;;;;;;;5.17;1.87;;;;;;;15.84;48.33;101433.09;5036491;28;20575;-80
2022/03/24 10:30:53;;;;;;;4.23;2.03;;;;;;;16.08;47.73;101431.44;5037443;28;20601;-79
2022/03/24 10:33:33;;;;;;;3.23;2.10;;;;;;;16.25;47.44;101438.91;5012260;28;20443;-79
2022/03/24 10:36:15;;;;;;;1.37;1.27;;;;;;;16.52;47.68;101427.22;5035706;28;20447;-79
2022/03/24 10:38:44;;;;;;;1.63;1.53;;;;;;;16.69;47.50;101425.78;5030083;28;20444;-79
2022/03/24 10:41:24;;;;;;;3.60;2.33;;;;;;;16.80;45.91;101424.47;5025187;28;20553;-79
2022/03/24 10:43:54;;;;;;;1.17;1.13;;;;;;;16.93;45.42;101415.97;5039088;28;20452;-79
2022/03/24 10:46:25;;;;;;;6.57;4.07;;;;;;;16.88;43.03;101427.78;5023464;28;20548;-79
2022/03/24 10:48:53;;;;;;;35.90;3.90;;;;;;;16.92;42.56;101420.47;5030518;28;20452;-80
2022/03/24 10:51:33;;;;;;;2.73;1.07;;;;;;;17.05;42.31;101424.47;5037375;28;20456;-79
2022/03/24 10:54:28;;;;;;;12.27;3.60;;;;;;;17.10;41.03;101421.59;5032180;28;20488;-80
2022/03/24 10:57:03;;;;;;;3.80;1.70;;;;;;;17.00;40.01;101413.00;5025139;28;20471;-79
2022/03/24 10:59:40;;;;;;;0.60;0.60;;;;;;;17.16;39.24;101416.88;5028017;28;20924;-80
2022/03/24 11:02:09;;;;;;;2.50;2.30;;;;;;;17.12;40.40;101408.97;5008021;28;21055;-80
2022/03/24 11:04:36;;;;;;;3.90;3.40;;;;;;;17.27;39.68;101415.56;5019234;28;20456;-80
2022/03/24 11:07:02;;;;;;;4.37;1.63;;;;;;;17.28;38.96;101412.84;5031598;28;20472;-80
2022/03/24 11:09:31;;;;;;;0.60;0.60;;;;;;;17.58;39.15;101412.59;5019137;28;20460;-80
2022/03/24 11:12:31;;;;;;;2.00;1.70;;;;;;;17.71;39.11;101417.44;5034029;28;20511;-79
2022/03/24 11:15:00;;;;;;;5.07;3.60;;;;;;;17.57;39.11;101406.34;5023866;28;20452;-79
2022/03/24 11:17:30;;;;;;;6.00;1.30;;;;;;;17.82;39.31;101410.75;5025563;28;20461;-79
2022/03/24 11:20:06;;;;;;;1.83;1.50;;;;;;;17.87;38.72;101406.06;5033491;28;20945;-80
2022/03/24 11:22:55;;;;;;;1.17;1.17;;;;;;;17.60;38.80;101402.63;5036021;28;20498;-79
2022/03/24 11:25:23;;;;;;;4.67;1.07;;;;;;;17.68;38.26;101401.44;5038086;28;20455;-80
2022/03/24 11:27:53;;;;;;;3.90;3.70;;;;;;;17.88;38.99;101397.94;5011496;28;20466;-80
2022/03/24 11:30:22;;;;;;;0.93;0.93;;;;;;;18.19;38.90;101394.81;5037221;28;20445;-79
2022/03/24 11:32:51;;;;;;;0.60;0.60;;;;;;;18.34;37.93;101388.78;5032999;28;20449;-80
2022/03/24 11:35:18;;;;;;;0.90;0.90;;;;;;;18.14;36.67;101385.22;5036382;28;20836;-80
2022/03/24 11:37:45;;;;;;;3.33;3.13;;;;;;;18.28;37.08;101380.13;5023403;28;20460;-80
2022/03/24 11:40:13;;;;;;;5.60;2.13;;;;;;;18.33;37.36;101381.66;5036395;28;20447;-80